sensor_id;sensor_type;location;lat;lon;timestamp;P1;durP1;ratioP1;P2;durP2;ratioP2
26989;SDS011;14537;47.788;11.858;2022-12-05T00:00:17;6.55;;;3.17;;
26989;SDS011;14537;47.788;11.858;2022-12-05T00:02:43;4.15;;;2.55;;
26989;SDS011;14537;47.788;11.858;2022-12-05T00:05:09;6.32;;;3.58;;
26989;SDS011;14537;47.788;11.858;2022-12-05T00:07:36;6.18;;;2.88;;
26989;SDS011;14537;47.788;11.858;2022-12-05T00:10:02;6.05;;;2.65;;
26989;SDS011;14537;47.788;11.858;2022-12-05T00:12:29;6.60;;;2.67;;
26989;SDS011;14537;47.788;11.858;2022-12-05T00:14:54;4.03;;;2.40;;
26989;SDS011;14537;47.788;11.858;2022-12-05T00:17:20;4.30;;;2.65;;
26989;SDS011;14537;47.788;11.858;2022-12-05T00:19:46;4.30;;;2.45;;
26989;SDS011;14537;47.788;11.858;2022-12-05T00:22:11;4.68;;;2.53;;
26989;SDS011;14537;47.788;11.858;2022-12-05T00:24:37;4.40;;;2.28;;
26989;SDS011;14537;47.788;11.858;2022-12-05T00:27:03;3.58;;;1.85;;
26989;SDS011;14537;47.788;11.858;2022-12-05T00:29:30;3.92;;;2.45;;
26989;SDS011;14537;47.788;11.858;2022-12-05T00:31:55;3.47;;;2.03;;
26989;SDS011;14537;47.788;11.858;2022-12-05T00:34:21;8.20;;;2.45;;
26989;SDS011;14537;47.788;11.858;2022-12-05T00:36:47;4.28;;;2.42;;
26989;SDS011;14537;47.788;11.858;2022-12-05T00:39:13;6.63;;;3.03;;
26989;SDS011;14537;47.788;11.858;2022-12-05T00:41:39;9.35;;;2.78;;
26989;SDS011;14537;47.788;11.858;2022-12-05T00:44:05;8.70;;;3.03;;
26989;SDS011;14537;47.788;11.858;2022-12-05T00:46:32;5.40;;;2.60;;
26989;SDS011;14537;47.788;11.858;2022-12-05T00:48:58;3.03;;;2.03;;
26989;SDS011;14537;47.788;11.858;2022-12-05T00:51:27;6.22;;;2.58;;
26989;SDS011;14537;47.788;11.858;2022-12-05T00:54:04;8.35;;;2.63;;
26989;SDS011;14537;47.788;11.858;2022-12-05T00:56:32;3.67;;;2.35;;
26989;SDS011;14537;47.788;11.858;2022-12-05T00:58:58;21.08;;;2.90;;
26989;SDS011;14537;47.788;11.858;2022-12-05T01:01:30;3.92;;;2.08;;
26989;SDS011;14537;47.788;11.858;2022-12-05T01:03:58;3.85;;;2.03;;
26989;SDS011;14537;47.788;11.858;2022-12-05T01:06:25;2.55;;;1.75;;
26989;SDS011;14537;47.788;11.858;2022-12-05T01:08:52;3.72;;;2.05;;
26989;SDS011;14537;47.788;11.858;2022-12-05T01:11:19;3.10;;;1.90;;
26989;SDS011;14537;47.788;11.858;2022-12-05T01:13:47;2.47;;;1.70;;
26989;SDS011;14537;47.788;11.858;2022-12-05T01:16:18;3.10;;;2.00;;
26989;SDS011;14537;47.788;11.858;2022-12-05T01:19:04;2.42;;;1.70;;
26989;SDS011;14537;47.788;11.858;2022-12-05T01:21:34;2.40;;;1.70;;
26989;SDS011;14537;47.788;11.858;2022-12-05T01:24:00;3.50;;;2.17;;
26989;SDS011;14537;47.788;11.858;2022-12-05T01:26:26;4.72;;;2.30;;
26989;SDS011;14537;47.788;11.858;2022-12-05T01:28:51;3.33;;;2.00;;
26989;SDS011;14537;47.788;11.858;2022-12-05T01:31:21;19.90;;;2.47;;
26989;SDS011;14537;47.788;11.858;2022-12-05T01:33:52;2.72;;;1.90;;
26989;SDS011;14537;47.788;11.858;2022-12-05T01:36:20;4.93;;;2.28;;
26989;SDS011;14537;47.788;11.858;2022-12-05T01:38:47;8.75;;;2.03;;
26989;SDS011;14537;47.788;11.858;2022-12-05T01:41:15;3.58;;;1.95;;
26989;SDS011;14537;47.788;11.858;2022-12-05T01:46:20;4.97;;;2.00;;
26989;SDS011;14537;47.788;11.858;2022-12-05T01:48:46;4.28;;;2.00;;
26989;SDS011;14537;47.788;11.858;2022-12-05T01:51:11;3.30;;;1.98;;
26989;SDS011;14537;47.788;11.858;2022-12-05T01:53:37;5.40;;;2.35;;
26989;SDS011;14537;47.788;11.858;2022-12-05T01:56:03;5.82;;;2.13;;
26989;SDS011;14537;47.788;11.858;2022-12-05T01:58:32;12.32;;;2.60;;
26989;SDS011;14537;47.788;11.858;2022-12-05T02:01:01;20.00;;;3.05;;
26989;SDS011;14537;47.788;11.858;2022-12-05T02:03:27;9.82;;;2.67;;
26989;SDS011;14537;47.788;11.858;2022-12-05T02:05:53;4.95;;;2.22;;
26989;SDS011;14537;47.788;11.858;2022-12-05T02:08:21;6.22;;;2.75;;
26989;SDS011;14537;47.788;11.858;2022-12-05T02:10:51;25.55;;;3.17;;
26989;SDS011;14537;47.788;11.858;2022-12-05T02:16:09;6.05;;;3.00;;
26989;SDS011;14537;47.788;11.858;2022-12-05T02:22:09;9.10;;;2.33;;
26989;SDS011;14537;47.788;11.858;2022-12-05T02:24:30;4.38;;;2.45;;
26989;SDS011;14537;47.788;11.858;2022-12-05T02:30:11;10.60;;;2.58;;
26989;SDS011;14537;47.788;11.858;2022-12-05T02:41:01;31.35;;;2.75;;
26989;SDS011;14537;47.788;11.858;2022-12-05T02:43:33;3.75;;;2.40;;
26989;SDS011;14537;47.788;11.858;2022-12-05T02:46:04;4.93;;;2.83;;
26989;SDS011;14537;47.788;11.858;2022-12-05T02:48:35;8.20;;;2.47;;
26989;SDS011;14537;47.788;11.858;2022-12-05T02:51:02;5.25;;;2.22;;
26989;SDS011;14537;47.788;11.858;2022-12-05T02:53:31;5.30;;;2.75;;
26989;SDS011;14537;47.788;11.858;2022-12-05T02:56:00;3.20;;;2.00;;
26989;SDS011;14537;47.788;11.858;2022-12-05T02:58:29;4.18;;;2.10;;
26989;SDS011;14537;47.788;11.858;2022-12-05T03:00:59;5.05;;;2.75;;
26989;SDS011;14537;47.788;11.858;2022-12-05T03:03:26;8.30;;;3.20;;
26989;SDS011;14537;47.788;11.858;2022-12-05T03:08:30;5.63;;;2.70;;
26989;SDS011;14537;47.788;11.858;2022-12-05T03:11:02;4.75;;;2.67;;
26989;SDS011;14537;47.788;11.858;2022-12-05T03:13:37;5.60;;;3.00;;
26989;SDS011;14537;47.788;11.858;2022-12-05T03:16:10;6.95;;;3.10;;
26989;SDS011;14537;47.788;11.858;2022-12-05T03:18:50;6.95;;;3.17;;
26989;SDS011;14537;47.788;11.858;2022-12-05T03:21:32;6.18;;;2.92;;
26989;SDS011;14537;47.788;11.858;2022-12-05T03:24:05;7.70;;;3.45;;
26989;SDS011;14537;47.788;11.858;2022-12-05T03:26:51;5.97;;;3.00;;
26989;SDS011;14537;47.788;11.858;2022-12-05T03:34:54;7.72;;;3.97;;
26989;SDS011;14537;47.788;11.858;2022-12-05T03:40:05;5.03;;;2.75;;
26989;SDS011;14537;47.788;11.858;2022-12-05T03:51:06;6.25;;;3.25;;
26989;SDS011;14537;47.788;11.858;2022-12-05T03:53:36;7.10;;;3.55;;
26989;SDS011;14537;47.788;11.858;2022-12-05T03:56:11;8.45;;;4.20;;
26989;SDS011;14537;47.788;11.858;2022-12-05T03:58:54;7.63;;;3.50;;
26989;SDS011;14537;47.788;11.858;2022-12-05T04:01:48;9.70;;;3.53;;
26989;SDS011;14537;47.788;11.858;2022-12-05T04:04:17;8.45;;;3.88;;
26989;SDS011;14537;47.788;11.858;2022-12-05T04:06:50;12.40;;;3.55;;
26989;SDS011;14537;47.788;11.858;2022-12-05T04:09:25;8.75;;;4.00;;
26989;SDS011;14537;47.788;11.858;2022-12-05T04:11:57;7.55;;;3.25;;
26989;SDS011;14537;47.788;11.858;2022-12-05T04:14:29;8.70;;;3.22;;
26989;SDS011;14537;47.788;11.858;2022-12-05T04:17:03;9.50;;;4.03;;
26989;SDS011;14537;47.788;11.858;2022-12-05T04:22:26;7.97;;;3.33;;
26989;SDS011;14537;47.788;11.858;2022-12-05T04:24:53;9.15;;;3.78;;
26989;SDS011;14537;47.788;11.858;2022-12-05T04:30:39;7.28;;;3.92;;
26989;SDS011;14537;47.788;11.858;2022-12-05T04:33:16;10.48;;;3.95;;
26989;SDS011;14537;47.788;11.858;2022-12-05T04:35:54;7.60;;;3.38;;
26989;SDS011;14537;47.788;11.858;2022-12-05T04:38:47;7.53;;;3.42;;
26989;SDS011;14537;47.788;11.858;2022-12-05T04:41:19;8.85;;;3.70;;
26989;SDS011;14537;47.788;11.858;2022-12-05T04:43:49;8.85;;;4.32;;
26989;SDS011;14537;47.788;11.858;2022-12-05T04:46:18;11.57;;;4.07;;
26989;SDS011;14537;47.788;11.858;2022-12-05T04:48:46;6.78;;;3.10;;
26989;SDS011;14537;47.788;11.858;2022-12-05T04:51:17;9.40;;;4.28;;
26989;SDS011;14537;47.788;11.858;2022-12-05T04:53:46;9.10;;;3.47;;
26989;SDS011;14537;47.788;11.858;2022-12-05T04:56:18;7.82;;;3.40;;
26989;SDS011;14537;47.788;11.858;2022-12-05T04:58:46;8.10;;;3.80;;
26989;SDS011;14537;47.788;11.858;2022-12-05T05:03:53;6.72;;;3.50;;
26989;SDS011;14537;47.788;11.858;2022-12-05T05:06:21;7.97;;;3.40;;
26989;SDS011;14537;47.788;11.858;2022-12-05T05:08:50;8.20;;;3.78;;
26989;SDS011;14537;47.788;11.858;2022-12-05T05:13:51;7.60;;;3.75;;
26989;SDS011;14537;47.788;11.858;2022-12-05T05:16:18;11.45;;;4.25;;
26989;SDS011;14537;47.788;11.858;2022-12-05T05:18:49;10.95;;;4.13;;
26989;SDS011;14537;47.788;11.858;2022-12-05T05:23:45;10.70;;;3.83;;
26989;SDS011;14537;47.788;11.858;2022-12-05T05:26:11;11.55;;;4.18;;
26989;SDS011;14537;47.788;11.858;2022-12-05T05:28:37;7.82;;;4.00;;
26989;SDS011;14537;47.788;11.858;2022-12-05T05:31:03;9.10;;;4.28;;
26989;SDS011;14537;47.788;11.858;2022-12-05T05:33:29;11.95;;;4.53;;
26989;SDS011;14537;47.788;11.858;2022-12-05T05:35:55;8.63;;;3.63;;
26989;SDS011;14537;47.788;11.858;2022-12-05T05:38:21;7.85;;;3.88;;
26989;SDS011;14537;47.788;11.858;2022-12-05T05:40:46;11.23;;;4.90;;
26989;SDS011;14537;47.788;11.858;2022-12-05T05:43:12;9.68;;;4.20;;
26989;SDS011;14537;47.788;11.858;2022-12-05T05:45:38;9.73;;;5.15;;
26989;SDS011;14537;47.788;11.858;2022-12-05T05:48:03;9.15;;;4.32;;
26989;SDS011;14537;47.788;11.858;2022-12-05T05:50:29;9.00;;;4.32;;
26989;SDS011;14537;47.788;11.858;2022-12-05T05:52:55;9.18;;;4.35;;
26989;SDS011;14537;47.788;11.858;2022-12-05T05:55:20;9.85;;;4.45;;
26989;SDS011;14537;47.788;11.858;2022-12-05T05:57:46;8.38;;;3.90;;
26989;SDS011;14537;47.788;11.858;2022-12-05T06:00:12;8.60;;;4.07;;
26989;SDS011;14537;47.788;11.858;2022-12-05T06:02:38;9.23;;;4.50;;
26989;SDS011;14537;47.788;11.858;2022-12-05T06:05:04;13.65;;;4.78;;
26989;SDS011;14537;47.788;11.858;2022-12-05T06:07:30;13.02;;;5.25;;
26989;SDS011;14537;47.788;11.858;2022-12-05T06:09:56;9.05;;;4.32;;
26989;SDS011;14537;47.788;11.858;2022-12-05T06:12:21;8.75;;;4.72;;
26989;SDS011;14537;47.788;11.858;2022-12-05T06:14:47;13.90;;;5.07;;
26989;SDS011;14537;47.788;11.858;2022-12-05T06:17:14;8.05;;;3.80;;
26989;SDS011;14537;47.788;11.858;2022-12-05T06:19:40;11.45;;;4.88;;
26989;SDS011;14537;47.788;11.858;2022-12-05T06:22:06;9.75;;;4.85;;
26989;SDS011;14537;47.788;11.858;2022-12-05T06:24:32;7.72;;;3.88;;
26989;SDS011;14537;47.788;11.858;2022-12-05T06:26:57;7.00;;;4.00;;
26989;SDS011;14537;47.788;11.858;2022-12-05T06:29:23;7.20;;;3.70;;
26989;SDS011;14537;47.788;11.858;2022-12-05T06:31:49;10.73;;;4.57;;
26989;SDS011;14537;47.788;11.858;2022-12-05T06:34:14;9.07;;;4.25;;
26989;SDS011;14537;47.788;11.858;2022-12-05T06:36:41;11.35;;;4.35;;
26989;SDS011;14537;47.788;11.858;2022-12-05T06:39:06;7.97;;;3.70;;
26989;SDS011;14537;47.788;11.858;2022-12-05T06:41:33;10.32;;;4.03;;
26989;SDS011;14537;47.788;11.858;2022-12-05T06:43:58;10.20;;;4.43;;
26989;SDS011;14537;47.788;11.858;2022-12-05T06:46:24;9.82;;;4.05;;
26989;SDS011;14537;47.788;11.858;2022-12-05T06:48:54;11.32;;;4.15;;
26989;SDS011;14537;47.788;11.858;2022-12-05T06:51:21;8.90;;;3.80;;
26989;SDS011;14537;47.788;11.858;2022-12-05T06:53:48;8.15;;;3.72;;
26989;SDS011;14537;47.788;11.858;2022-12-05T06:56:14;7.07;;;3.83;;
26989;SDS011;14537;47.788;11.858;2022-12-05T06:58:42;8.05;;;3.85;;
26989;SDS011;14537;47.788;11.858;2022-12-05T07:01:16;7.72;;;3.30;;
26989;SDS011;14537;47.788;11.858;2022-12-05T07:04:02;7.80;;;3.67;;
26989;SDS011;14537;47.788;11.858;2022-12-05T07:06:28;9.30;;;4.03;;
26989;SDS011;14537;47.788;11.858;2022-12-05T07:08:54;11.20;;;4.63;;
26989;SDS011;14537;47.788;11.858;2022-12-05T07:11:20;8.98;;;4.15;;
26989;SDS011;14537;47.788;11.858;2022-12-05T07:13:46;9.40;;;4.45;;
26989;SDS011;14537;47.788;11.858;2022-12-05T07:16:11;7.07;;;3.90;;
26989;SDS011;14537;47.788;11.858;2022-12-05T07:18:37;9.18;;;3.88;;
26989;SDS011;14537;47.788;11.858;2022-12-05T07:21:04;7.40;;;3.92;;
26989;SDS011;14537;47.788;11.858;2022-12-05T07:23:31;9.27;;;4.22;;
26989;SDS011;14537;47.788;11.858;2022-12-05T07:25:57;7.20;;;3.67;;
26989;SDS011;14537;47.788;11.858;2022-12-05T07:28:24;7.28;;;3.88;;
26989;SDS011;14537;47.788;11.858;2022-12-05T07:31:06;8.98;;;4.43;;
26989;SDS011;14537;47.788;11.858;2022-12-05T07:33:36;10.02;;;4.78;;
26989;SDS011;14537;47.788;11.858;2022-12-05T07:36:07;6.25;;;3.17;;
26989;SDS011;14537;47.788;11.858;2022-12-05T07:38:35;7.57;;;3.88;;
26989;SDS011;14537;47.788;11.858;2022-12-05T07:41:04;8.27;;;4.40;;
26989;SDS011;14537;47.788;11.858;2022-12-05T07:43:31;14.65;;;5.43;;
26989;SDS011;14537;47.788;11.858;2022-12-05T07:46:06;18.27;;;7.55;;
26989;SDS011;14537;47.788;11.858;2022-12-05T07:48:33;18.20;;;6.47;;
26989;SDS011;14537;47.788;11.858;2022-12-05T07:51:02;8.60;;;4.07;;
26989;SDS011;14537;47.788;11.858;2022-12-05T07:53:28;7.50;;;3.33;;
26989;SDS011;14537;47.788;11.858;2022-12-05T07:55:57;7.80;;;3.78;;
26989;SDS011;14537;47.788;11.858;2022-12-05T07:58:24;5.28;;;3.00;;
26989;SDS011;14537;47.788;11.858;2022-12-05T08:00:51;7.25;;;3.47;;
26989;SDS011;14537;47.788;11.858;2022-12-05T08:03:17;8.43;;;3.30;;
26989;SDS011;14537;47.788;11.858;2022-12-05T08:05:42;6.82;;;3.13;;
26989;SDS011;14537;47.788;11.858;2022-12-05T08:08:08;6.82;;;2.95;;
26989;SDS011;14537;47.788;11.858;2022-12-05T08:10:34;4.97;;;2.63;;
26989;SDS011;14537;47.788;11.858;2022-12-05T08:12:59;6.55;;;3.15;;
26989;SDS011;14537;47.788;11.858;2022-12-05T08:15:25;9.25;;;4.07;;
26989;SDS011;14537;47.788;11.858;2022-12-05T08:17:51;7.90;;;3.65;;
26989;SDS011;14537;47.788;11.858;2022-12-05T08:20:16;7.30;;;3.35;;
26989;SDS011;14537;47.788;11.858;2022-12-05T08:22:42;5.63;;;3.17;;
26989;SDS011;14537;47.788;11.858;2022-12-05T08:25:08;6.88;;;3.30;;
26989;SDS011;14537;47.788;11.858;2022-12-05T08:27:34;6.90;;;3.30;;
26989;SDS011;14537;47.788;11.858;2022-12-05T08:30:00;6.35;;;3.33;;
26989;SDS011;14537;47.788;11.858;2022-12-05T08:32:25;5.32;;;2.72;;
26989;SDS011;14537;47.788;11.858;2022-12-05T08:34:51;7.10;;;3.20;;
26989;SDS011;14537;47.788;11.858;2022-12-05T08:37:17;8.27;;;3.38;;
26989;SDS011;14537;47.788;11.858;2022-12-05T08:39:43;6.90;;;3.88;;
26989;SDS011;14537;47.788;11.858;2022-12-05T08:42:08;8.27;;;3.92;;
26989;SDS011;14537;47.788;11.858;2022-12-05T08:44:34;7.00;;;3.97;;
26989;SDS011;14537;47.788;11.858;2022-12-05T08:47:00;8.93;;;4.60;;
26989;SDS011;14537;47.788;11.858;2022-12-05T08:49:25;9.65;;;4.85;;
26989;SDS011;14537;47.788;11.858;2022-12-05T08:51:53;10.73;;;5.40;;
26989;SDS011;14537;47.788;11.858;2022-12-05T08:54:19;7.93;;;4.07;;
26989;SDS011;14537;47.788;11.858;2022-12-05T08:56:44;4.85;;;2.55;;
26989;SDS011;14537;47.788;11.858;2022-12-05T08:59:10;9.77;;;4.85;;
26989;SDS011;14537;47.788;11.858;2022-12-05T09:01:36;14.10;;;6.13;;
26989;SDS011;14537;47.788;11.858;2022-12-05T09:04:02;7.57;;;3.85;;
26989;SDS011;14537;47.788;11.858;2022-12-05T09:06:29;6.32;;;2.90;;
26989;SDS011;14537;47.788;11.858;2022-12-05T09:08:57;3.88;;;2.00;;
26989;SDS011;14537;47.788;11.858;2022-12-05T09:11:25;5.15;;;2.67;;
26989;SDS011;14537;47.788;11.858;2022-12-05T09:13:53;7.38;;;2.97;;
26989;SDS011;14537;47.788;11.858;2022-12-05T09:16:21;4.35;;;2.30;;
26989;SDS011;14537;47.788;11.858;2022-12-05T09:18:49;5.30;;;2.58;;
26989;SDS011;14537;47.788;11.858;2022-12-05T09:21:17;3.40;;;2.28;;
26989;SDS011;14537;47.788;11.858;2022-12-05T09:23:44;5.83;;;2.97;;
26989;SDS011;14537;47.788;11.858;2022-12-05T09:26:11;3.55;;;2.22;;
26989;SDS011;14537;47.788;11.858;2022-12-05T09:28:39;6.68;;;2.60;;
26989;SDS011;14537;47.788;11.858;2022-12-05T09:31:06;8.05;;;2.67;;
26989;SDS011;14537;47.788;11.858;2022-12-05T09:33:35;8.32;;;4.10;;
26989;SDS011;14537;47.788;11.858;2022-12-05T09:36:05;6.10;;;3.22;;
26989;SDS011;14537;47.788;11.858;2022-12-05T09:38:33;6.25;;;3.30;;
26989;SDS011;14537;47.788;11.858;2022-12-05T09:41:11;5.35;;;3.10;;
26989;SDS011;14537;47.788;11.858;2022-12-05T09:44:25;5.53;;;2.08;;
26989;SDS011;14537;47.788;11.858;2022-12-05T09:49:54;4.18;;;2.40;;
26989;SDS011;14537;47.788;11.858;2022-12-05T09:52:26;8.63;;;3.40;;
26989;SDS011;14537;47.788;11.858;2022-12-05T09:54:54;6.80;;;3.30;;
26989;SDS011;14537;47.788;11.858;2022-12-05T09:57:23;4.00;;;2.25;;
26989;SDS011;14537;47.788;11.858;2022-12-05T09:59:58;5.43;;;2.35;;
26989;SDS011;14537;47.788;11.858;2022-12-05T10:02:28;6.60;;;2.30;;
26989;SDS011;14537;47.788;11.858;2022-12-05T10:05:09;4.20;;;2.33;;
26989;SDS011;14537;47.788;11.858;2022-12-05T10:07:44;4.28;;;2.08;;
26989;SDS011;14537;47.788;11.858;2022-12-05T10:10:33;5.65;;;2.88;;
26989;SDS011;14537;47.788;11.858;2022-12-05T10:15:53;7.35;;;3.45;;
26989;SDS011;14537;47.788;11.858;2022-12-05T10:18:25;7.80;;;4.15;;
26989;SDS011;14537;47.788;11.858;2022-12-05T10:23:29;8.18;;;3.35;;
26989;SDS011;14537;47.788;11.858;2022-12-05T10:26:08;10.43;;;3.25;;
26989;SDS011;14537;47.788;11.858;2022-12-05T10:28:39;11.15;;;5.30;;
26989;SDS011;14537;47.788;11.858;2022-12-05T10:31:17;12.40;;;5.90;;
26989;SDS011;14537;47.788;11.858;2022-12-05T10:33:47;10.70;;;5.65;;
26989;SDS011;14537;47.788;11.858;2022-12-05T10:36:17;11.88;;;5.32;;
26989;SDS011;14537;47.788;11.858;2022-12-05T10:38:43;7.88;;;4.40;;
26989;SDS011;14537;47.788;11.858;2022-12-05T10:41:11;8.10;;;3.72;;
26989;SDS011;14537;47.788;11.858;2022-12-05T10:43:39;7.45;;;3.90;;
26989;SDS011;14537;47.788;11.858;2022-12-05T10:46:06;8.98;;;3.22;;
26989;SDS011;14537;47.788;11.858;2022-12-05T10:48:34;6.95;;;3.25;;
26989;SDS011;14537;47.788;11.858;2022-12-05T10:51:02;7.70;;;3.10;;
26989;SDS011;14537;47.788;11.858;2022-12-05T10:56:34;4.47;;;2.55;;
26989;SDS011;14537;47.788;11.858;2022-12-05T10:58:59;3.55;;;2.38;;
26989;SDS011;14537;47.788;11.858;2022-12-05T11:01:25;4.43;;;2.53;;
26989;SDS011;14537;47.788;11.858;2022-12-05T11:04:01;4.80;;;2.40;;
26989;SDS011;14537;47.788;11.858;2022-12-05T11:06:53;4.80;;;2.50;;
26989;SDS011;14537;47.788;11.858;2022-12-05T11:09:20;5.50;;;2.65;;
26989;SDS011;14537;47.788;11.858;2022-12-05T11:17:52;5.43;;;2.72;;
26989;SDS011;14537;47.788;11.858;2022-12-05T11:22:49;4.55;;;2.40;;
26989;SDS011;14537;47.788;11.858;2022-12-05T11:25:30;4.53;;;2.30;;
26989;SDS011;14537;47.788;11.858;2022-12-05T11:27:59;3.08;;;1.95;;
26989;SDS011;14537;47.788;11.858;2022-12-05T11:33:38;4.07;;;1.98;;
26989;SDS011;14537;47.788;11.858;2022-12-05T11:38:44;3.17;;;1.60;;
26989;SDS011;14537;47.788;11.858;2022-12-05T11:41:20;3.63;;;1.80;;
26989;SDS011;14537;47.788;11.858;2022-12-05T11:51:55;3.50;;;1.98;;
26989;SDS011;14537;47.788;11.858;2022-12-05T11:57:27;7.28;;;2.72;;
26989;SDS011;14537;47.788;11.858;2022-12-05T12:08:15;4.95;;;2.50;;
26989;SDS011;14537;47.788;11.858;2022-12-05T12:11:02;7.85;;;3.55;;
26989;SDS011;14537;47.788;11.858;2022-12-05T12:19:02;3.67;;;2.28;;
26989;SDS011;14537;47.788;11.858;2022-12-05T12:27:26;8.02;;;2.55;;
26989;SDS011;14537;47.788;11.858;2022-12-05T12:30:17;5.07;;;2.63;;
26989;SDS011;14537;47.788;11.858;2022-12-05T12:33:08;3.95;;;2.35;;
26989;SDS011;14537;47.788;11.858;2022-12-05T12:35:57;3.42;;;2.03;;
26989;SDS011;14537;47.788;11.858;2022-12-05T12:38:57;2.00;;;1.63;;
26989;SDS011;14537;47.788;11.858;2022-12-05T12:42:32;3.65;;;1.65;;
26989;SDS011;14537;47.788;11.858;2022-12-05T12:47:22;5.53;;;2.53;;
26989;SDS011;14537;47.788;11.858;2022-12-05T12:55:52;11.00;;;3.83;;
26989;SDS011;14537;47.788;11.858;2022-12-05T13:03:55;5.35;;;2.10;;
26989;SDS011;14537;47.788;11.858;2022-12-05T13:11:51;6.05;;;2.03;;
26989;SDS011;14537;47.788;11.858;2022-12-05T13:14:19;4.35;;;2.05;;
26989;SDS011;14537;47.788;11.858;2022-12-05T13:16:50;4.95;;;2.45;;
26989;SDS011;14537;47.788;11.858;2022-12-05T13:19:26;5.70;;;2.05;;
26989;SDS011;14537;47.788;11.858;2022-12-05T13:22:03;5.25;;;2.63;;
26989;SDS011;14537;47.788;11.858;2022-12-05T13:24:30;6.10;;;3.00;;
26989;SDS011;14537;47.788;11.858;2022-12-05T13:26:58;5.55;;;2.40;;
26989;SDS011;14537;47.788;11.858;2022-12-05T13:32:04;3.88;;;2.22;;
26989;SDS011;14537;47.788;11.858;2022-12-05T13:36:59;3.90;;;1.95;;
26989;SDS011;14537;47.788;11.858;2022-12-05T13:39:54;3.35;;;1.95;;
26989;SDS011;14537;47.788;11.858;2022-12-05T13:42:39;9.98;;;4.68;;
26989;SDS011;14537;47.788;11.858;2022-12-05T13:45:07;5.75;;;2.40;;
26989;SDS011;14537;47.788;11.858;2022-12-05T13:47:46;6.07;;;2.10;;
26989;SDS011;14537;47.788;11.858;2022-12-05T13:51:31;4.53;;;2.42;;
26989;SDS011;14537;47.788;11.858;2022-12-05T13:53:41;4.13;;;2.28;;
26989;SDS011;14537;47.788;11.858;2022-12-05T13:58:44;4.65;;;2.42;;
26989;SDS011;14537;47.788;11.858;2022-12-05T14:09:03;4.03;;;2.47;;
26989;SDS011;14537;47.788;11.858;2022-12-05T14:17:30;2.45;;;1.30;;
26989;SDS011;14537;47.788;11.858;2022-12-05T14:25:38;2.30;;;1.52;;
26989;SDS011;14537;47.788;11.858;2022-12-05T14:28:21;3.40;;;1.50;;
26989;SDS011;14537;47.788;11.858;2022-12-05T14:39:20;6.00;;;1.92;;
26989;SDS011;14537;47.788;11.858;2022-12-05T14:41:56;7.72;;;2.83;;
26989;SDS011;14537;47.788;11.858;2022-12-05T14:44:23;8.27;;;1.98;;
26989;SDS011;14537;47.788;11.858;2022-12-05T14:46:55;3.90;;;2.17;;
26989;SDS011;14537;47.788;11.858;2022-12-05T14:54:44;5.00;;;2.28;;
26989;SDS011;14537;47.788;11.858;2022-12-05T14:57:11;3.75;;;1.83;;
26989;SDS011;14537;47.788;11.858;2022-12-05T15:02:20;3.03;;;1.55;;
26989;SDS011;14537;47.788;11.858;2022-12-05T15:05:33;3.35;;;2.10;;
26989;SDS011;14537;47.788;11.858;2022-12-05T15:07:48;4.07;;;2.00;;
26989;SDS011;14537;47.788;11.858;2022-12-05T15:10:23;3.70;;;1.73;;
26989;SDS011;14537;47.788;11.858;2022-12-05T15:12:56;2.92;;;1.48;;
26989;SDS011;14537;47.788;11.858;2022-12-05T15:15:44;3.38;;;1.15;;
26989;SDS011;14537;47.788;11.858;2022-12-05T15:18:23;2.55;;;1.42;;
26989;SDS011;14537;47.788;11.858;2022-12-05T15:24:04;4.13;;;1.50;;
26989;SDS011;14537;47.788;11.858;2022-12-05T15:29:14;0.80;;;0.60;;
26989;SDS011;14537;47.788;11.858;2022-12-05T15:31:45;2.85;;;1.38;;
26989;SDS011;14537;47.788;11.858;2022-12-05T15:34:31;3.20;;;1.10;;
26989;SDS011;14537;47.788;11.858;2022-12-05T15:39:54;1.83;;;0.88;;
26989;SDS011;14537;47.788;11.858;2022-12-05T15:42:35;4.00;;;1.65;;
26989;SDS011;14537;47.788;11.858;2022-12-05T15:47:43;2.50;;;1.30;;
26989;SDS011;14537;47.788;11.858;2022-12-05T15:50:14;3.55;;;1.63;;
26989;SDS011;14537;47.788;11.858;2022-12-05T15:52:52;2.53;;;0.90;;
26989;SDS011;14537;47.788;11.858;2022-12-05T15:55:26;3.35;;;1.30;;
26989;SDS011;14537;47.788;11.858;2022-12-05T16:01:03;7.18;;;1.65;;
26989;SDS011;14537;47.788;11.858;2022-12-05T16:03:39;2.40;;;1.60;;
26989;SDS011;14537;47.788;11.858;2022-12-05T16:06:32;2.80;;;1.65;;
26989;SDS011;14537;47.788;11.858;2022-12-05T16:09:04;2.03;;;1.00;;
26989;SDS011;14537;47.788;11.858;2022-12-05T16:11:32;2.23;;;1.23;;
26989;SDS011;14537;47.788;11.858;2022-12-05T16:14:00;1.85;;;1.33;;
26989;SDS011;14537;47.788;11.858;2022-12-05T16:16:30;3.50;;;1.80;;
26989;SDS011;14537;47.788;11.858;2022-12-05T16:19:03;5.93;;;2.47;;
26989;SDS011;14537;47.788;11.858;2022-12-05T16:21:38;6.38;;;2.10;;
26989;SDS011;14537;47.788;11.858;2022-12-05T16:24:07;46.15;;;12.18;;
26989;SDS011;14537;47.788;11.858;2022-12-05T16:29:37;3.28;;;2.03;;
26989;SDS011;14537;47.788;11.858;2022-12-05T16:32:05;5.88;;;2.15;;
26989;SDS011;14537;47.788;11.858;2022-12-05T16:34:44;3.83;;;1.80;;
26989;SDS011;14537;47.788;11.858;2022-12-05T16:37:16;4.47;;;2.00;;
26989;SDS011;14537;47.788;11.858;2022-12-05T16:39:51;6.47;;;2.33;;
26989;SDS011;14537;47.788;11.858;2022-12-05T16:42:27;4.53;;;2.10;;
26989;SDS011;14537;47.788;11.858;2022-12-05T16:45:00;6.47;;;1.33;;
26989;SDS011;14537;47.788;11.858;2022-12-05T16:48:12;3.15;;;1.92;;
26989;SDS011;14537;47.788;11.858;2022-12-05T16:52:46;2.78;;;1.27;;
26989;SDS011;14537;47.788;11.858;2022-12-05T16:55:12;1.63;;;1.35;;
26989;SDS011;14537;47.788;11.858;2022-12-05T16:57:38;8.73;;;2.97;;
26989;SDS011;14537;47.788;11.858;2022-12-05T17:00:04;4.18;;;1.92;;
26989;SDS011;14537;47.788;11.858;2022-12-05T17:02:31;4.00;;;1.88;;
26989;SDS011;14537;47.788;11.858;2022-12-05T17:04:57;7.85;;;2.35;;
26989;SDS011;14537;47.788;11.858;2022-12-05T17:07:27;6.25;;;2.40;;
26989;SDS011;14537;47.788;11.858;2022-12-05T17:09:52;3.97;;;1.58;;
26989;SDS011;14537;47.788;11.858;2022-12-05T17:12:21;5.95;;;2.70;;
26989;SDS011;14537;47.788;11.858;2022-12-05T17:14:49;4.32;;;2.28;;
26989;SDS011;14537;47.788;11.858;2022-12-05T17:17:14;5.07;;;2.03;;
26989;SDS011;14537;47.788;11.858;2022-12-05T17:19:42;5.22;;;3.28;;
26989;SDS011;14537;47.788;11.858;2022-12-05T17:22:07;7.07;;;3.00;;
26989;SDS011;14537;47.788;11.858;2022-12-05T17:24:34;4.55;;;2.80;;
26989;SDS011;14537;47.788;11.858;2022-12-05T17:27:00;6.85;;;3.95;;
26989;SDS011;14537;47.788;11.858;2022-12-05T17:29:26;4.47;;;2.40;;
26989;SDS011;14537;47.788;11.858;2022-12-05T17:31:51;4.78;;;2.63;;
26989;SDS011;14537;47.788;11.858;2022-12-05T17:34:17;2.30;;;1.33;;
26989;SDS011;14537;47.788;11.858;2022-12-05T17:36:43;4.38;;;2.13;;
26989;SDS011;14537;47.788;11.858;2022-12-05T17:39:09;5.40;;;1.30;;
26989;SDS011;14537;47.788;11.858;2022-12-05T17:41:35;5.78;;;2.95;;
26989;SDS011;14537;47.788;11.858;2022-12-05T17:44:02;2.15;;;1.40;;
26989;SDS011;14537;47.788;11.858;2022-12-05T17:46:28;12.35;;;4.40;;
26989;SDS011;14537;47.788;11.858;2022-12-05T17:48:54;12.02;;;5.45;;
26989;SDS011;14537;47.788;11.858;2022-12-05T17:51:19;6.70;;;3.45;;
26989;SDS011;14537;47.788;11.858;2022-12-05T17:53:46;6.00;;;2.78;;
26989;SDS011;14537;47.788;11.858;2022-12-05T17:56:12;7.20;;;2.83;;
26989;SDS011;14537;47.788;11.858;2022-12-05T17:58:38;9.00;;;2.65;;
26989;SDS011;14537;47.788;11.858;2022-12-05T18:01:04;6.80;;;2.70;;
26989;SDS011;14537;47.788;11.858;2022-12-05T18:03:30;6.07;;;2.00;;